sensor_id;sensor_type;location;lat;lon;timestamp;P1;durP1;ratioP1;P2;durP2;ratioP2
17592;SDS011;8915;51.760;14.300;2023-08-06T00:01:49;7.53;;;5.17;;
17592;SDS011;8915;51.760;14.300;2023-08-06T00:04:16;5.90;;;5.30;;
17592;SDS011;8915;51.760;14.300;2023-08-06T00:06:42;9.37;;;5.50;;
17592;SDS011;8915;51.760;14.300;2023-08-06T00:09:08;6.03;;;5.43;;
17592;SDS011;8915;51.760;14.300;2023-08-06T00:11:36;8.40;;;5.57;;
17592;SDS011;8915;51.760;14.300;2023-08-06T00:14:02;7.23;;;5.53;;
17592;SDS011;8915;51.760;14.300;2023-08-06T00:16:29;5.47;;;4.97;;
17592;SDS011;8915;51.760;14.300;2023-08-06T00:18:55;6.73;;;5.17;;
17592;SDS011;8915;51.760;14.300;2023-08-06T00:21:21;8.17;;;6.27;;
17592;SDS011;8915;51.760;14.300;2023-08-06T00:23:48;6.23;;;5.10;;
17592;SDS011;8915;51.760;14.300;2023-08-06T00:26:14;6.27;;;5.67;;
17592;SDS011;8915;51.760;14.300;2023-08-06T00:28:42;8.13;;;6.07;;
17592;SDS011;8915;51.760;14.300;2023-08-06T00:31:08;7.53;;;5.50;;
17592;SDS011;8915;51.760;14.300;2023-08-06T00:33:34;5.67;;;5.03;;
17592;SDS011;8915;51.760;14.300;2023-08-06T00:36:01;7.27;;;5.13;;
17592;SDS011;8915;51.760;14.300;2023-08-06T00:38:28;5.60;;;4.63;;
17592;SDS011;8915;51.760;14.300;2023-08-06T00:40:55;5.80;;;5.10;;
17592;SDS011;8915;51.760;14.300;2023-08-06T00:43:21;6.43;;;4.47;;
17592;SDS011;8915;51.760;14.300;2023-08-06T00:45:48;6.57;;;5.40;;
17592;SDS011;8915;51.760;14.300;2023-08-06T00:48:15;6.07;;;4.13;;
17592;SDS011;8915;51.760;14.300;2023-08-06T00:50:42;4.90;;;4.13;;
17592;SDS011;8915;51.760;14.300;2023-08-06T00:53:09;5.03;;;4.27;;
17592;SDS011;8915;51.760;14.300;2023-08-06T00:55:35;5.73;;;4.30;;
17592;SDS011;8915;51.760;14.300;2023-08-06T00:58:02;4.47;;;4.07;;
17592;SDS011;8915;51.760;14.300;2023-08-06T01:00:29;5.37;;;4.50;;
17592;SDS011;8915;51.760;14.300;2023-08-06T01:02:57;7.30;;;4.60;;
17592;SDS011;8915;51.760;14.300;2023-08-06T01:05:23;5.53;;;4.40;;
17592;SDS011;8915;51.760;14.300;2023-08-06T01:07:51;5.37;;;4.37;;
17592;SDS011;8915;51.760;14.300;2023-08-06T01:10:32;4.57;;;4.10;;
17592;SDS011;8915;51.760;14.300;2023-08-06T01:13:08;7.00;;;4.70;;
17592;SDS011;8915;51.760;14.300;2023-08-06T01:15:43;5.57;;;4.33;;
17592;SDS011;8915;51.760;14.300;2023-08-06T01:18:14;5.07;;;4.23;;
17592;SDS011;8915;51.760;14.300;2023-08-06T01:20:42;5.40;;;4.37;;
17592;SDS011;8915;51.760;14.300;2023-08-06T01:23:08;5.57;;;4.50;;
17592;SDS011;8915;51.760;14.300;2023-08-06T01:25:35;5.30;;;4.70;;
17592;SDS011;8915;51.760;14.300;2023-08-06T01:28:10;5.00;;;4.50;;
17592;SDS011;8915;51.760;14.300;2023-08-06T01:30:44;4.33;;;3.93;;
17592;SDS011;8915;51.760;14.300;2023-08-06T01:33:14;5.93;;;4.67;;
17592;SDS011;8915;51.760;14.300;2023-08-06T01:35:46;5.47;;;4.60;;
17592;SDS011;8915;51.760;14.300;2023-08-06T01:38:15;6.47;;;4.43;;
17592;SDS011;8915;51.760;14.300;2023-08-06T01:40:42;5.83;;;4.37;;
17592;SDS011;8915;51.760;14.300;2023-08-06T01:43:08;4.77;;;3.90;;
17592;SDS011;8915;51.760;14.300;2023-08-06T01:45:35;5.93;;;4.60;;
17592;SDS011;8915;51.760;14.300;2023-08-06T01:48:02;6.73;;;4.60;;
17592;SDS011;8915;51.760;14.300;2023-08-06T01:50:28;5.67;;;5.07;;
17592;SDS011;8915;51.760;14.300;2023-08-06T01:52:56;4.97;;;4.47;;
17592;SDS011;8915;51.760;14.300;2023-08-06T01:55:22;5.87;;;4.93;;
17592;SDS011;8915;51.760;14.300;2023-08-06T01:57:48;6.57;;;4.60;;
17592;SDS011;8915;51.760;14.300;2023-08-06T02:00:15;6.90;;;5.20;;
17592;SDS011;8915;51.760;14.300;2023-08-06T02:02:41;5.40;;;4.90;;
17592;SDS011;8915;51.760;14.300;2023-08-06T02:05:08;4.80;;;4.27;;
17592;SDS011;8915;51.760;14.300;2023-08-06T02:07:35;5.37;;;4.80;;
17592;SDS011;8915;51.760;14.300;2023-08-06T02:10:03;4.77;;;4.37;;
17592;SDS011;8915;51.760;14.300;2023-08-06T02:12:30;6.23;;;4.67;;
17592;SDS011;8915;51.760;14.300;2023-08-06T02:14:57;6.47;;;4.93;;
17592;SDS011;8915;51.760;14.300;2023-08-06T02:17:23;5.93;;;5.10;;
17592;SDS011;8915;51.760;14.300;2023-08-06T02:19:49;5.67;;;4.40;;
17592;SDS011;8915;51.760;14.300;2023-08-06T02:22:15;6.20;;;4.37;;
17592;SDS011;8915;51.760;14.300;2023-08-06T02:24:42;5.20;;;4.40;;
17592;SDS011;8915;51.760;14.300;2023-08-06T02:27:10;6.07;;;4.60;;
17592;SDS011;8915;51.760;14.300;2023-08-06T02:29:37;5.63;;;5.10;;
17592;SDS011;8915;51.760;14.300;2023-08-06T02:32:03;5.13;;;4.60;;
17592;SDS011;8915;51.760;14.300;2023-08-06T02:34:32;5.03;;;4.33;;
17592;SDS011;8915;51.760;14.300;2023-08-06T02:36:58;4.77;;;4.27;;
17592;SDS011;8915;51.760;14.300;2023-08-06T02:39:24;6.00;;;4.80;;
17592;SDS011;8915;51.760;14.300;2023-08-06T02:41:51;6.17;;;4.40;;
17592;SDS011;8915;51.760;14.300;2023-08-06T02:44:18;5.70;;;4.77;;
17592;SDS011;8915;51.760;14.300;2023-08-06T02:46:45;5.67;;;4.43;;
17592;SDS011;8915;51.760;14.300;2023-08-06T02:49:12;5.23;;;4.23;;
17592;SDS011;8915;51.760;14.300;2023-08-06T02:51:38;5.00;;;4.50;;
17592;SDS011;8915;51.760;14.300;2023-08-06T02:54:04;5.73;;;4.33;;
17592;SDS011;8915;51.760;14.300;2023-08-06T02:56:33;5.00;;;4.23;;
17592;SDS011;8915;51.760;14.300;2023-08-06T02:59:08;6.40;;;4.13;;
17592;SDS011;8915;51.760;14.300;2023-08-06T03:01:46;5.83;;;4.17;;
17592;SDS011;8915;51.760;14.300;2023-08-06T03:04:19;5.17;;;4.30;;
17592;SDS011;8915;51.760;14.300;2023-08-06T03:06:48;5.73;;;4.20;;
17592;SDS011;8915;51.760;14.300;2023-08-06T03:09:16;6.07;;;4.47;;
17592;SDS011;8915;51.760;14.300;2023-08-06T03:11:42;6.63;;;5.37;;
17592;SDS011;8915;51.760;14.300;2023-08-06T03:14:13;5.90;;;5.30;;
17592;SDS011;8915;51.760;14.300;2023-08-06T03:16:40;6.10;;;5.50;;
17592;SDS011;8915;51.760;14.300;2023-08-06T03:19:08;6.97;;;5.90;;
17592;SDS011;8915;51.760;14.300;2023-08-06T03:21:34;6.10;;;5.27;;
17592;SDS011;8915;51.760;14.300;2023-08-06T03:24:02;8.00;;;5.97;;
17592;SDS011;8915;51.760;14.300;2023-08-06T03:26:31;7.20;;;5.73;;
17592;SDS011;8915;51.760;14.300;2023-08-06T03:28:57;7.07;;;6.20;;
17592;SDS011;8915;51.760;14.300;2023-08-06T03:31:24;7.77;;;5.90;;
17592;SDS011;8915;51.760;14.300;2023-08-06T03:33:51;7.83;;;5.53;;
17592;SDS011;8915;51.760;14.300;2023-08-06T03:36:25;6.27;;;5.50;;
17592;SDS011;8915;51.760;14.300;2023-08-06T03:38:52;6.43;;;5.83;;
17592;SDS011;8915;51.760;14.300;2023-08-06T03:41:18;6.33;;;5.50;;
17592;SDS011;8915;51.760;14.300;2023-08-06T03:43:45;6.63;;;5.73;;
17592;SDS011;8915;51.760;14.300;2023-08-06T03:46:18;6.67;;;5.60;;
17592;SDS011;8915;51.760;14.300;2023-08-06T03:48:44;5.93;;;5.33;;
17592;SDS011;8915;51.760;14.300;2023-08-06T03:51:11;6.80;;;5.80;;
17592;SDS011;8915;51.760;14.300;2023-08-06T03:53:40;6.23;;;5.53;;
17592;SDS011;8915;51.760;14.300;2023-08-06T03:56:07;6.27;;;5.67;;
17592;SDS011;8915;51.760;14.300;2023-08-06T03:58:33;6.53;;;5.77;;
17592;SDS011;8915;51.760;14.300;2023-08-06T04:01:00;6.67;;;5.50;;
17592;SDS011;8915;51.760;14.300;2023-08-06T04:03:31;6.60;;;5.53;;
17592;SDS011;8915;51.760;14.300;2023-08-06T04:05:58;6.30;;;5.63;;
17592;SDS011;8915;51.760;14.300;2023-08-06T04:08:24;18.97;;;5.83;;
17592;SDS011;8915;51.760;14.300;2023-08-06T04:10:52;6.57;;;5.90;;
17592;SDS011;8915;51.760;14.300;2023-08-06T04:13:19;6.97;;;5.90;;
17592;SDS011;8915;51.760;14.300;2023-08-06T04:15:46;7.13;;;5.97;;
17592;SDS011;8915;51.760;14.300;2023-08-06T04:18:13;6.20;;;5.43;;
17592;SDS011;8915;51.760;14.300;2023-08-06T04:20:42;5.77;;;5.17;;
17592;SDS011;8915;51.760;14.300;2023-08-06T04:23:09;8.70;;;5.73;;
17592;SDS011;8915;51.760;14.300;2023-08-06T04:25:36;6.63;;;5.87;;
17592;SDS011;8915;51.760;14.300;2023-08-06T04:28:04;6.67;;;5.97;;
17592;SDS011;8915;51.760;14.300;2023-08-06T04:30:30;7.33;;;5.83;;
17592;SDS011;8915;51.760;14.300;2023-08-06T04:32:57;5.83;;;5.03;;
17592;SDS011;8915;51.760;14.300;2023-08-06T04:35:24;5.73;;;5.13;;
17592;SDS011;8915;51.760;14.300;2023-08-06T04:37:51;6.47;;;5.67;;
17592;SDS011;8915;51.760;14.300;2023-08-06T04:40:17;6.50;;;5.80;;
17592;SDS011;8915;51.760;14.300;2023-08-06T04:42:44;7.40;;;6.00;;
17592;SDS011;8915;51.760;14.300;2023-08-06T04:45:11;6.30;;;5.70;;
17592;SDS011;8915;51.760;14.300;2023-08-06T04:47:38;6.03;;;5.43;;
17592;SDS011;8915;51.760;14.300;2023-08-06T04:50:04;6.50;;;5.43;;
17592;SDS011;8915;51.760;14.300;2023-08-06T04:52:31;6.23;;;5.27;;
17592;SDS011;8915;51.760;14.300;2023-08-06T04:54:58;6.37;;;5.13;;
17592;SDS011;8915;51.760;14.300;2023-08-06T04:57:24;6.17;;;5.57;;
17592;SDS011;8915;51.760;14.300;2023-08-06T04:59:50;6.20;;;5.30;;
17592;SDS011;8915;51.760;14.300;2023-08-06T05:02:18;6.33;;;4.97;;
17592;SDS011;8915;51.760;14.300;2023-08-06T05:04:44;5.60;;;4.80;;
17592;SDS011;8915;51.760;14.300;2023-08-06T05:07:11;6.00;;;4.80;;
17592;SDS011;8915;51.760;14.300;2023-08-06T05:09:37;5.23;;;4.43;;
17592;SDS011;8915;51.760;14.300;2023-08-06T05:12:04;5.03;;;4.53;;
17592;SDS011;8915;51.760;14.300;2023-08-06T05:14:31;4.80;;;4.27;;
17592;SDS011;8915;51.760;14.300;2023-08-06T05:16:57;4.50;;;4.10;;
17592;SDS011;8915;51.760;14.300;2023-08-06T05:19:25;4.03;;;3.60;;
17592;SDS011;8915;51.760;14.300;2023-08-06T05:21:51;3.97;;;3.67;;
17592;SDS011;8915;51.760;14.300;2023-08-06T05:24:17;4.80;;;3.90;;
17592;SDS011;8915;51.760;14.300;2023-08-06T05:26:43;4.13;;;3.73;;
17592;SDS011;8915;51.760;14.300;2023-08-06T05:29:11;4.13;;;3.73;;
17592;SDS011;8915;51.760;14.300;2023-08-06T05:31:38;4.20;;;3.03;;
17592;SDS011;8915;51.760;14.300;2023-08-06T05:34:04;4.57;;;3.53;;
17592;SDS011;8915;51.760;14.300;2023-08-06T05:36:32;3.57;;;3.17;;
17592;SDS011;8915;51.760;14.300;2023-08-06T05:38:58;3.33;;;3.00;;
17592;SDS011;8915;51.760;14.300;2023-08-06T05:41:24;3.80;;;3.40;;
17592;SDS011;8915;51.760;14.300;2023-08-06T05:43:51;4.70;;;4.20;;
17592;SDS011;8915;51.760;14.300;2023-08-06T05:46:17;3.90;;;2.93;;
17592;SDS011;8915;51.760;14.300;2023-08-06T05:48:43;3.40;;;3.10;;
17592;SDS011;8915;51.760;14.300;2023-08-06T05:51:10;3.17;;;2.87;;
17592;SDS011;8915;51.760;14.300;2023-08-06T05:53:39;3.60;;;3.30;;
17592;SDS011;8915;51.760;14.300;2023-08-06T05:56:05;3.97;;;3.57;;
17592;SDS011;8915;51.760;14.300;2023-08-06T05:58:31;4.00;;;3.60;;
17592;SDS011;8915;51.760;14.300;2023-08-06T06:00:58;3.77;;;3.47;;
17592;SDS011;8915;51.760;14.300;2023-08-06T06:03:24;4.03;;;3.63;;
17592;SDS011;8915;51.760;14.300;2023-08-06T06:05:50;3.40;;;3.10;;
17592;SDS011;8915;51.760;14.300;2023-08-06T06:08:17;3.53;;;3.17;;
17592;SDS011;8915;51.760;14.300;2023-08-06T06:10:45;4.43;;;3.13;;
17592;SDS011;8915;51.760;14.300;2023-08-06T06:13:11;3.53;;;3.23;;
17592;SDS011;8915;51.760;14.300;2023-08-06T06:15:37;3.83;;;3.40;;
17592;SDS011;8915;51.760;14.300;2023-08-06T06:18:04;6.87;;;5.33;;
17592;SDS011;8915;51.760;14.300;2023-08-06T06:20:31;4.83;;;4.20;;
17592;SDS011;8915;51.760;14.300;2023-08-06T06:22:58;4.27;;;3.70;;
17592;SDS011;8915;51.760;14.300;2023-08-06T06:25:24;4.10;;;3.70;;
17592;SDS011;8915;51.760;14.300;2023-08-06T06:27:52;5.57;;;3.83;;
17592;SDS011;8915;51.760;14.300;2023-08-06T06:30:18;4.00;;;3.60;;
17592;SDS011;8915;51.760;14.300;2023-08-06T06:32:44;3.83;;;3.40;;
17592;SDS011;8915;51.760;14.300;2023-08-06T06:35:10;3.63;;;3.27;;
17592;SDS011;8915;51.760;14.300;2023-08-06T06:37:38;5.10;;;3.43;;
17592;SDS011;8915;51.760;14.300;2023-08-06T06:40:05;3.93;;;3.40;;
17592;SDS011;8915;51.760;14.300;2023-08-06T06:42:32;4.03;;;3.63;;
17592;SDS011;8915;51.760;14.300;2023-08-06T06:45:02;3.97;;;3.40;;
17592;SDS011;8915;51.760;14.300;2023-08-06T06:47:28;3.90;;;3.50;;
17592;SDS011;8915;51.760;14.300;2023-08-06T06:49:54;4.10;;;2.93;;
17592;SDS011;8915;51.760;14.300;2023-08-06T06:52:21;9.47;;;7.87;;
17592;SDS011;8915;51.760;14.300;2023-08-06T06:54:47;4.73;;;4.13;;
17592;SDS011;8915;51.760;14.300;2023-08-06T06:57:13;10.13;;;9.13;;
17592;SDS011;8915;51.760;14.300;2023-08-06T06:59:40;4.83;;;4.43;;
17592;SDS011;8915;51.760;14.300;2023-08-06T07:02:08;4.40;;;3.83;;
17592;SDS011;8915;51.760;14.300;2023-08-06T07:04:34;6.27;;;4.10;;
17592;SDS011;8915;51.760;14.300;2023-08-06T07:07:00;3.97;;;3.57;;
17592;SDS011;8915;51.760;14.300;2023-08-06T07:09:27;4.07;;;3.60;;
17592;SDS011;8915;51.760;14.300;2023-08-06T07:11:53;4.53;;;3.50;;
17592;SDS011;8915;51.760;14.300;2023-08-06T07:14:19;4.67;;;4.13;;
17592;SDS011;8915;51.760;14.300;2023-08-06T07:16:46;5.00;;;3.83;;
17592;SDS011;8915;51.760;14.300;2023-08-06T07:19:13;4.80;;;3.60;;
17592;SDS011;8915;51.760;14.300;2023-08-06T07:21:39;4.67;;;3.97;;
17592;SDS011;8915;51.760;14.300;2023-08-06T07:24:06;4.33;;;3.93;;
17592;SDS011;8915;51.760;14.300;2023-08-06T07:26:32;4.43;;;4.03;;
17592;SDS011;8915;51.760;14.300;2023-08-06T07:28:58;4.10;;;3.70;;
17592;SDS011;8915;51.760;14.300;2023-08-06T07:31:25;5.47;;;4.57;;
17592;SDS011;8915;51.760;14.300;2023-08-06T07:33:51;5.40;;;4.30;;
17592;SDS011;8915;51.760;14.300;2023-08-06T07:36:19;4.13;;;3.50;;
17592;SDS011;8915;51.760;14.300;2023-08-06T07:38:45;5.03;;;4.30;;
17592;SDS011;8915;51.760;14.300;2023-08-06T07:41:13;6.73;;;4.13;;
17592;SDS011;8915;51.760;14.300;2023-08-06T07:43:40;4.97;;;4.50;;
17592;SDS011;8915;51.760;14.300;2023-08-06T07:46:07;5.23;;;3.60;;
17592;SDS011;8915;51.760;14.300;2023-08-06T07:48:34;3.83;;;3.10;;
17592;SDS011;8915;51.760;14.300;2023-08-06T07:51:00;3.43;;;3.13;;
17592;SDS011;8915;51.760;14.300;2023-08-06T07:53:28;3.40;;;3.10;;
17592;SDS011;8915;51.760;14.300;2023-08-06T07:55:54;3.47;;;3.17;;
17592;SDS011;8915;51.760;14.300;2023-08-06T07:58:21;3.83;;;3.10;;
17592;SDS011;8915;51.760;14.300;2023-08-06T08:00:50;4.10;;;3.30;;
17592;SDS011;8915;51.760;14.300;2023-08-06T08:03:16;3.80;;;3.40;;
17592;SDS011;8915;51.760;14.300;2023-08-06T08:05:43;3.73;;;3.43;;
17592;SDS011;8915;51.760;14.300;2023-08-06T08:08:10;4.13;;;3.73;;
17592;SDS011;8915;51.760;14.300;2023-08-06T08:10:38;3.50;;;3.20;;
17592;SDS011;8915;51.760;14.300;2023-08-06T08:13:04;3.87;;;3.57;;
17592;SDS011;8915;51.760;14.300;2023-08-06T08:15:31;4.80;;;3.63;;
17592;SDS011;8915;51.760;14.300;2023-08-06T08:17:58;7.57;;;3.90;;
17592;SDS011;8915;51.760;14.300;2023-08-06T08:20:26;4.77;;;4.13;;
17592;SDS011;8915;51.760;14.300;2023-08-06T08:22:56;3.80;;;3.50;;
17592;SDS011;8915;51.760;14.300;2023-08-06T08:25:23;4.30;;;3.90;;
17592;SDS011;8915;51.760;14.300;2023-08-06T08:27:51;4.93;;;3.90;;
17592;SDS011;8915;51.760;14.300;2023-08-06T08:30:17;4.47;;;3.93;;
17592;SDS011;8915;51.760;14.300;2023-08-06T08:32:44;4.23;;;3.83;;
17592;SDS011;8915;51.760;14.300;2023-08-06T08:35:10;5.90;;;4.07;;
17592;SDS011;8915;51.760;14.300;2023-08-06T08:37:38;5.03;;;4.53;;
17592;SDS011;8915;51.760;14.300;2023-08-06T08:40:05;5.33;;;4.37;;
17592;SDS011;8915;51.760;14.300;2023-08-06T08:42:32;5.00;;;4.50;;
17592;SDS011;8915;51.760;14.300;2023-08-06T08:45:00;5.07;;;4.53;;
17592;SDS011;8915;51.760;14.300;2023-08-06T08:47:26;4.80;;;4.30;;
17592;SDS011;8915;51.760;14.300;2023-08-06T08:49:53;6.20;;;4.47;;
17592;SDS011;8915;51.760;14.300;2023-08-06T08:52:20;6.23;;;5.63;;
17592;SDS011;8915;51.760;14.300;2023-08-06T08:54:48;6.23;;;5.63;;
17592;SDS011;8915;51.760;14.300;2023-08-06T08:57:17;6.27;;;5.67;;
17592;SDS011;8915;51.760;14.300;2023-08-06T08:59:44;6.03;;;5.43;;
17592;SDS011;8915;51.760;14.300;2023-08-06T09:02:12;6.80;;;6.07;;
17592;SDS011;8915;51.760;14.300;2023-08-06T09:04:40;6.27;;;5.67;;
17592;SDS011;8915;51.760;14.300;2023-08-06T09:07:07;6.83;;;5.53;;
17592;SDS011;8915;51.760;14.300;2023-08-06T09:09:36;6.90;;;6.20;;
17592;SDS011;8915;51.760;14.300;2023-08-06T09:12:05;6.80;;;6.20;;
17592;SDS011;8915;51.760;14.300;2023-08-06T09:14:38;7.40;;;6.70;;
17592;SDS011;8915;51.760;14.300;2023-08-06T09:17:04;7.53;;;6.77;;
17592;SDS011;8915;51.760;14.300;2023-08-06T09:19:32;7.40;;;6.60;;
17592;SDS011;8915;51.760;14.300;2023-08-06T09:21:58;7.10;;;6.40;;
17592;SDS011;8915;51.760;14.300;2023-08-06T09:24:25;7.47;;;6.53;;
17592;SDS011;8915;51.760;14.300;2023-08-06T09:26:52;7.37;;;6.63;;
17592;SDS011;8915;51.760;14.300;2023-08-06T09:29:19;8.17;;;7.27;;
17592;SDS011;8915;51.760;14.300;2023-08-06T09:31:46;8.27;;;7.47;;
17592;SDS011;8915;51.760;14.300;2023-08-06T09:34:14;7.93;;;7.13;;
17592;SDS011;8915;51.760;14.300;2023-08-06T09:36:43;9.10;;;7.83;;
17592;SDS011;8915;51.760;14.300;2023-08-06T09:39:12;10.23;;;7.43;;
17592;SDS011;8915;51.760;14.300;2023-08-06T09:41:39;8.30;;;7.50;;
17592;SDS011;8915;51.760;14.300;2023-08-06T09:44:08;9.10;;;8.20;;
17592;SDS011;8915;51.760;14.300;2023-08-06T09:46:41;9.43;;;8.20;;
17592;SDS011;8915;51.760;14.300;2023-08-06T09:49:08;9.63;;;7.73;;
17592;SDS011;8915;51.760;14.300;2023-08-06T09:51:35;9.90;;;7.63;;
17592;SDS011;8915;51.760;14.300;2023-08-06T09:54:06;9.97;;;7.47;;
17592;SDS011;8915;51.760;14.300;2023-08-06T09:56:33;6.97;;;6.27;;
17592;SDS011;8915;51.760;14.300;2023-08-06T09:59:02;7.90;;;7.10;;
17592;SDS011;8915;51.760;14.300;2023-08-06T10:01:30;8.50;;;7.40;;
17592;SDS011;8915;51.760;14.300;2023-08-06T10:03:58;7.53;;;6.83;;
17592;SDS011;8915;51.760;14.300;2023-08-06T10:06:26;9.57;;;7.27;;
17592;SDS011;8915;51.760;14.300;2023-08-06T10:08:54;8.07;;;7.27;;
17592;SDS011;8915;51.760;14.300;2023-08-06T10:11:23;8.37;;;7.57;;
17592;SDS011;8915;51.760;14.300;2023-08-06T10:13:50;8.23;;;7.43;;
17592;SDS011;8915;51.760;14.300;2023-08-06T10:16:20;8.80;;;7.87;;
17592;SDS011;8915;51.760;14.300;2023-08-06T10:18:47;9.67;;;7.83;;
17592;SDS011;8915;51.760;14.300;2023-08-06T10:21:15;9.40;;;7.97;;
17592;SDS011;8915;51.760;14.300;2023-08-06T10:23:42;9.83;;;7.97;;
17592;SDS011;8915;51.760;14.300;2023-08-06T10:26:08;9.93;;;7.23;;
17592;SDS011;8915;51.760;14.300;2023-08-06T10:28:36;8.90;;;8.00;;
17592;SDS011;8915;51.760;14.300;2023-08-06T10:31:04;9.93;;;8.57;;
17592;SDS011;8915;51.760;14.300;2023-08-06T10:33:41;9.73;;;8.67;;
17592;SDS011;8915;51.760;14.300;2023-08-06T10:36:09;9.47;;;8.47;;
17592;SDS011;8915;51.760;14.300;2023-08-06T10:38:43;9.43;;;8.43;;
17592;SDS011;8915;51.760;14.300;2023-08-06T10:41:14;9.17;;;8.20;;
17592;SDS011;8915;51.760;14.300;2023-08-06T10:43:44;9.00;;;8.10;;
17592;SDS011;8915;51.760;14.300;2023-08-06T10:46:21;10.10;;;9.00;;
17592;SDS011;8915;51.760;14.300;2023-08-06T10:48:48;11.90;;;9.57;;
17592;SDS011;8915;51.760;14.300;2023-08-06T10:51:15;11.50;;;9.50;;
17592;SDS011;8915;51.760;14.300;2023-08-06T10:53:42;10.20;;;9.20;;
17592;SDS011;8915;51.760;14.300;2023-08-06T10:56:12;10.77;;;9.67;;
17592;SDS011;8915;51.760;14.300;2023-08-06T10:58:40;10.77;;;8.93;;
17592;SDS011;8915;51.760;14.300;2023-08-06T11:01:08;8.70;;;7.80;;
17592;SDS011;8915;51.760;14.300;2023-08-06T11:03:34;8.37;;;7.43;;
17592;SDS011;8915;51.760;14.300;2023-08-06T11:06:01;7.57;;;6.80;;
17592;SDS011;8915;51.760;14.300;2023-08-06T11:08:28;6.77;;;6.07;;
17592;SDS011;8915;51.760;14.300;2023-08-06T11:10:56;8.27;;;7.13;;
17592;SDS011;8915;51.760;14.300;2023-08-06T11:13:34;7.53;;;6.07;;
17592;SDS011;8915;51.760;14.300;2023-08-06T11:16:00;6.67;;;5.60;;
17592;SDS011;8915;51.760;14.300;2023-08-06T11:18:28;6.60;;;6.00;;
17592;SDS011;8915;51.760;14.300;2023-08-06T11:20:54;7.37;;;6.60;;
17592;SDS011;8915;51.760;14.300;2023-08-06T11:23:21;7.27;;;6.57;;
17592;SDS011;8915;51.760;14.300;2023-08-06T11:25:47;7.83;;;7.00;;
17592;SDS011;8915;51.760;14.300;2023-08-06T11:28:13;6.60;;;6.00;;
17592;SDS011;8915;51.760;14.300;2023-08-06T11:30:40;7.10;;;6.40;;
17592;SDS011;8915;51.760;14.300;2023-08-06T11:33:06;6.63;;;5.93;;
17592;SDS011;8915;51.760;14.300;2023-08-06T11:35:35;6.63;;;6.00;;
17592;SDS011;8915;51.760;14.300;2023-08-06T11:38:03;9.07;;;5.43;;
17592;SDS011;8915;51.760;14.300;2023-08-06T11:40:29;6.37;;;5.40;;
17592;SDS011;8915;51.760;14.300;2023-08-06T11:42:57;8.67;;;6.13;;
17592;SDS011;8915;51.760;14.300;2023-08-06T11:45:24;5.50;;;4.97;;
17592;SDS011;8915;51.760;14.300;2023-08-06T11:47:51;5.67;;;5.17;;
17592;SDS011;8915;51.760;14.300;2023-08-06T11:50:21;5.60;;;5.10;;
17592;SDS011;8915;51.760;14.300;2023-08-06T11:52:49;6.87;;;5.70;;
17592;SDS011;8915;51.760;14.300;2023-08-06T11:55:22;5.73;;;5.13;;
17592;SDS011;8915;51.760;14.300;2023-08-06T11:57:49;5.60;;;5.00;;
17592;SDS011;8915;51.760;14.300;2023-08-06T12:00:15;4.80;;;4.40;;
17592;SDS011;8915;51.760;14.300;2023-08-06T12:02:44;7.33;;;4.87;;
17592;SDS011;8915;51.760;14.300;2023-08-06T12:05:11;4.43;;;4.03;;
17592;SDS011;8915;51.760;14.300;2023-08-06T12:07:39;6.90;;;4.43;;
17592;SDS011;8915;51.760;14.300;2023-08-06T12:10:09;6.57;;;4.70;;
17592;SDS011;8915;51.760;14.300;2023-08-06T12:12:36;4.60;;;4.20;;
17592;SDS011;8915;51.760;14.300;2023-08-06T12:15:04;5.47;;;4.97;;
17592;SDS011;8915;51.760;14.300;2023-08-06T12:17:31;5.67;;;5.17;;
17592;SDS011;8915;51.760;14.300;2023-08-06T12:19:58;8.07;;;5.90;;
17592;SDS011;8915;51.760;14.300;2023-08-06T12:22:24;6.93;;;6.23;;
17592;SDS011;8915;51.760;14.300;2023-08-06T12:24:51;7.43;;;6.43;;
17592;SDS011;8915;51.760;14.300;2023-08-06T12:27:18;7.57;;;6.77;;
17592;SDS011;8915;51.760;14.300;2023-08-06T12:29:45;7.70;;;6.90;;
17592;SDS011;8915;51.760;14.300;2023-08-06T12:32:13;8.03;;;7.17;;
17592;SDS011;8915;51.760;14.300;2023-08-06T12:34:40;8.63;;;7.73;;
17592;SDS011;8915;51.760;14.300;2023-08-06T12:37:08;9.00;;;7.57;;
17592;SDS011;8915;51.760;14.300;2023-08-06T12:39:35;7.80;;;6.80;;
17592;SDS011;8915;51.760;14.300;2023-08-06T12:42:02;8.37;;;7.47;;
17592;SDS011;8915;51.760;14.300;2023-08-06T12:44:31;13.90;;;8.10;;
17592;SDS011;8915;51.760;14.300;2023-08-06T12:46:58;8.40;;;7.27;;
17592;SDS011;8915;51.760;14.300;2023-08-06T12:49:25;8.67;;;7.77;;
17592;SDS011;8915;51.760;14.300;2023-08-06T12:51:52;9.67;;;8.40;;
17592;SDS011;8915;51.760;14.300;2023-08-06T12:54:19;12.70;;;9.50;;
17592;SDS011;8915;51.760;14.300;2023-08-06T12:56:46;10.97;;;9.37;;
17592;SDS011;8915;51.760;14.300;2023-08-06T12:59:13;11.53;;;8.77;;
17592;SDS011;8915;51.760;14.300;2023-08-06T13:01:41;12.23;;;9.60;;
17592;SDS011;8915;51.760;14.300;2023-08-06T13:04:08;11.03;;;9.27;;
17592;SDS011;8915;51.760;14.300;2023-08-06T13:06:35;10.33;;;9.10;;
17592;SDS011;8915;51.760;14.300;2023-08-06T13:09:02;9.70;;;8.80;;
17592;SDS011;8915;51.760;14.300;2023-08-06T13:11:29;9.87;;;8.80;;
17592;SDS011;8915;51.760;14.300;2023-08-06T13:13:56;11.70;;;9.27;;
17592;SDS011;8915;51.760;14.300;2023-08-06T13:16:25;12.50;;;9.23;;
17592;SDS011;8915;51.760;14.300;2023-08-06T13:18:52;11.63;;;9.27;;
17592;SDS011;8915;51.760;14.300;2023-08-06T13:21:19;10.00;;;9.00;;
17592;SDS011;8915;51.760;14.300;2023-08-06T13:23:45;9.90;;;8.90;;
17592;SDS011;8915;51.760;14.300;2023-08-06T13:26:12;11.10;;;10.00;;
17592;SDS011;8915;51.760;14.300;2023-08-06T13:28:40;12.30;;;9.80;;
17592;SDS011;8915;51.760;14.300;2023-08-06T13:31:07;12.77;;;11.10;;
17592;SDS011;8915;51.760;14.300;2023-08-06T13:33:33;12.50;;;10.17;;
17592;SDS011;8915;51.760;14.300;2023-08-06T13:36:01;12.53;;;10.10;;
17592;SDS011;8915;51.760;14.300;2023-08-06T13:38:27;14.33;;;10.33;;
17592;SDS011;8915;51.760;14.300;2023-08-06T13:40:53;12.43;;;10.57;;
17592;SDS011;8915;51.760;14.300;2023-08-06T13:43:20;12.30;;;10.67;;
17592;SDS011;8915;51.760;14.300;2023-08-06T13:45:46;11.80;;;10.57;;
17592;SDS011;8915;51.760;14.300;2023-08-06T13:48:12;11.83;;;10.17;;
17592;SDS011;8915;51.760;14.300;2023-08-06T13:50:39;11.37;;;10.23;;
17592;SDS011;8915;51.760;14.300;2023-08-06T13:53:06;11.87;;;10.30;;
17592;SDS011;8915;51.760;14.300;2023-08-06T13:55:33;10.77;;;9.67;;
17592;SDS011;8915;51.760;14.300;2023-08-06T13:57:59;10.60;;;8.53;;
17592;SDS011;8915;51.760;14.300;2023-08-06T14:00:25;10.03;;;9.03;;
17592;SDS011;8915;51.760;14.300;2023-08-06T14:02:52;10.33;;;9.23;;
17592;SDS011;8915;51.760;14.300;2023-08-06T14:05:18;10.60;;;8.57;;
17592;SDS011;8915;51.760;14.300;2023-08-06T14:07:44;9.90;;;7.90;;
17592;SDS011;8915;51.760;14.300;2023-08-06T14:10:12;9.60;;;7.90;;
17592;SDS011;8915;51.760;14.300;2023-08-06T14:12:38;8.50;;;7.70;;
17592;SDS011;8915;51.760;14.300;2023-08-06T14:15:05;8.23;;;7.33;;
17592;SDS011;8915;51.760;14.300;2023-08-06T14:17:32;9.33;;;7.70;;
17592;SDS011;8915;51.760;14.300;2023-08-06T14:19:58;10.37;;;8.33;;
17592;SDS011;8915;51.760;14.300;2023-08-06T14:22:25;9.33;;;8.33;;
17592;SDS011;8915;51.760;14.300;2023-08-06T14:24:52;10.53;;;8.30;;
17592;SDS011;8915;51.760;14.300;2023-08-06T14:27:44;10.97;;;8.90;;
17592;SDS011;8915;51.760;14.300;2023-08-06T14:30:36;9.77;;;8.77;;
17592;SDS011;8915;51.760;14.300;2023-08-06T14:33:03;9.90;;;8.57;;
17592;SDS011;8915;51.760;14.300;2023-08-06T14:35:29;10.33;;;8.77;;
17592;SDS011;8915;51.760;14.300;2023-08-06T14:37:56;9.67;;;8.67;;
17592;SDS011;8915;51.760;14.300;2023-08-06T14:40:23;9.80;;;7.97;;
17592;SDS011;8915;51.760;14.300;2023-08-06T14:42:52;9.40;;;8.00;;
17592;SDS011;8915;51.760;14.300;2023-08-06T14:45:19;11.20;;;7.03;;
17592;SDS011;8915;51.760;14.300;2023-08-06T14:47:45;7.63;;;6.87;;